createdAt,value
2022-08-07T00:01:44.520Z,100546.19
2022-08-07T00:04:06.025Z,100543.31
2022-08-07T00:06:33.876Z,100540.72
2022-08-07T00:09:16.386Z,100538.47
2022-08-07T00:11:54.097Z,100543.03
2022-08-07T00:14:25.433Z,100544.25
2022-08-07T00:16:58.333Z,100543.31
2022-08-07T00:19:25.917Z,100545.53
2022-08-07T00:21:56.126Z,100537.66
2022-08-07T00:24:24.390Z,100540.53
2022-08-07T00:26:58.864Z,100536.34
2022-08-07T00:29:32.650Z,100538.88
2022-08-07T00:31:59.697Z,100533.25
2022-08-07T00:34:27.071Z,100536.81
2022-08-07T00:36:56.355Z,100537.16
2022-08-07T00:39:23.089Z,100539.78
2022-08-07T00:42:02.580Z,100542.50
2022-08-07T00:44:33.174Z,100534.94
2022-08-07T00:47:03.669Z,100534.75
2022-08-07T00:50:21.132Z,100543.47
2022-08-07T00:52:20.316Z,100546.75
2022-08-07T00:54:53.833Z,100534.56
2022-08-07T00:57:23.052Z,100542.38
2022-08-07T00:59:52.826Z,100541.06
2022-08-07T01:02:28.729Z,100538.28
2022-08-07T01:04:59.219Z,100542.56
2022-08-07T01:07:28.241Z,100538.94
2022-08-07T01:10:05.862Z,100527.75
2022-08-07T01:12:44.785Z,100535.41
2022-08-07T01:15:20.767Z,100536.28
2022-08-07T01:17:50.165Z,100531.50
2022-08-07T01:20:17.683Z,100539.81
2022-08-07T01:22:54.354Z,100538.13
2022-08-07T01:25:53.564Z,100538.97
2022-08-07T01:28:21.768Z,100538.13
2022-08-07T01:30:52.580Z,100535.41
2022-08-07T01:33:22.621Z,100534.66
2022-08-07T01:35:54.184Z,100541.72
2022-08-07T01:38:32.679Z,100537.63
2022-08-07T01:41:09.451Z,100545.06
2022-08-07T01:43:38.500Z,100545.19
2022-08-07T01:46:08.247Z,100538.84
2022-08-07T01:48:46.779Z,100544.41
2022-08-07T01:52:01.153Z,100547.97
2022-08-07T01:54:19.297Z,100542.16
2022-08-07T01:57:06.845Z,100539.03
2022-08-07T01:59:56.697Z,100540.44
2022-08-07T02:03:11.440Z,100540.81
2022-08-07T02:05:42.806Z,100538.81
2022-08-07T02:08:18.050Z,100529.81
2022-08-07T02:10:54.860Z,100532.34
2022-08-07T02:13:56.617Z,100525.09
2022-08-07T02:16:12.142Z,100528.63
2022-08-07T02:18:46.871Z,100529.00
2022-08-07T02:21:16.373Z,100526.47
2022-08-07T02:23:44.925Z,100523.97
2022-08-07T02:26:32.676Z,100527.78
2022-08-07T02:29:00.283Z,100525.34
2022-08-07T02:31:29.454Z,100518.47
2022-08-07T02:34:03.636Z,100523.41
2022-08-07T02:36:43.749Z,100510.94
2022-08-07T02:39:17.214Z,100511.44
2022-08-07T02:42:03.630Z,100518.28
2022-08-07T02:44:42.248Z,100511.38
2022-08-07T02:47:29.177Z,100515.38
2022-08-07T02:50:11.548Z,100515.41
2022-08-07T02:52:44.069Z,100511.06
2022-08-07T02:56:02.121Z,100501.72
2022-08-07T02:58:21.750Z,100498.47
2022-08-07T03:00:51.648Z,100503.75
2022-08-07T03:03:22.694Z,100502.91
2022-08-07T03:05:54.062Z,100504.34
2022-08-07T03:08:26.996Z,100500.94
2022-08-07T03:10:58.010Z,100499.19
2022-08-07T03:13:39.312Z,100502.91
2022-08-07T03:16:18.355Z,100501.25
2022-08-07T03:18:50.623Z,100495.66
2022-08-07T03:21:19.245Z,100496.31
2022-08-07T03:24:21.192Z,100497.75
2022-08-07T03:26:43.066Z,100498.25
2022-08-07T03:29:20.826Z,100491.38
2022-08-07T03:31:49.889Z,100497.50
2022-08-07T03:34:22.553Z,100490.75
2022-08-07T03:36:57.233Z,100489.97
2022-08-07T03:39:46.474Z,100500.88
2022-08-07T03:42:13.363Z,100500.56
2022-08-07T03:44:41.780Z,100503.75
2022-08-07T03:47:13.330Z,100510.47
2022-08-07T03:49:47.681Z,100497.28
2022-08-07T03:52:22.867Z,100505.16
2022-08-07T03:55:06.099Z,100513.16
2022-08-07T03:58:35.250Z,100507.41
2022-08-07T04:00:30.586Z,100508.00
2022-08-07T04:03:03.851Z,100508.53
2022-08-07T04:05:40.783Z,100518.00
2022-08-07T04:08:16.186Z,100521.59
2022-08-07T04:10:54.741Z,100514.44
2022-08-07T04:14:09.369Z,100523.41
2022-08-07T04:16:31.311Z,100510.50
2022-08-07T04:19:04.399Z,100514.16
2022-08-07T04:21:59.629Z,100518.53
2022-08-07T04:24:39.233Z,100508.31
2022-08-07T04:27:20.713Z,100509.94
2022-08-07T04:30:01.963Z,100519.81
2022-08-07T04:32:58.098Z,100522.72
2022-08-07T04:35:27.298Z,100524.59
2022-08-07T04:38:03.951Z,100524.16
2022-08-07T04:40:35.872Z,100520.56
2022-08-07T04:43:11.022Z,100532.84
2022-08-07T04:46:01.179Z,100535.69
2022-08-07T04:49:14.959Z,100535.84
2022-08-07T04:52:01.744Z,100533.53
2022-08-07T04:54:50.590Z,100540.34
2022-08-07T04:58:09.904Z,100541.84
2022-08-07T05:00:50.008Z,100545.72
2022-08-07T05:04:06.832Z,100547.53
2022-08-07T05:06:56.084Z,100552.25
2022-08-07T05:09:46.303Z,100549.16
2022-08-07T05:12:26.729Z,100544.66
2022-08-07T05:15:04.173Z,100540.34
2022-08-07T05:17:50.937Z,100549.38
2022-08-07T05:20:24.977Z,100553.75
2022-08-07T05:22:57.097Z,100550.28
2022-08-07T05:26:04.140Z,100554.00
2022-08-07T05:28:22.553Z,100562.88
2022-08-07T05:30:53.241Z,100553.75
2022-08-07T05:33:21.661Z,100555.81
2022-08-07T05:35:50.909Z,100560.84
2022-08-07T05:38:59.873Z,100549.81
2022-08-07T05:41:14.504Z,100556.09
2022-08-07T05:44:08.354Z,100556.03
2022-08-07T05:46:36.449Z,100561.66
2022-08-07T05:49:11.814Z,100555.97
2022-08-07T05:51:42.519Z,100566.59
2022-08-07T05:54:30.267Z,100563.53
2022-08-07T05:56:58.701Z,100564.53
2022-08-07T05:59:27.393Z,100574.41
2022-08-07T06:02:00.279Z,100566.91
2022-08-07T06:04:30.196Z,100574.84
2022-08-07T06:07:03.812Z,100581.44
2022-08-07T06:09:44.965Z,100574.31
2022-08-07T06:12:31.868Z,100573.47
2022-08-07T06:15:05.773Z,100574.63
2022-08-07T06:17:38.063Z,100568.44
2022-08-07T06:20:12.320Z,100573.78
2022-08-07T06:23:04.085Z,100575.44
2022-08-07T06:25:54.504Z,100570.44
2022-08-07T06:28:27.211Z,100566.09
2022-08-07T06:30:56.023Z,100566.47
2022-08-07T06:33:23.390Z,100563.75
2022-08-07T06:36:12.296Z,100568.06
2022-08-07T06:38:58.835Z,100558.56
2022-08-07T06:42:01.896Z,100563.81
2022-08-07T06:44:51.740Z,100563.50
2022-08-07T06:47:21.112Z,100572.19
2022-08-07T06:49:51.503Z,100559.31
2022-08-07T06:52:36.063Z,100563.38
2022-08-07T06:55:32.757Z,100562.78
2022-08-07T06:58:10.195Z,100550.25
2022-08-07T07:00:46.282Z,100547.88
2022-08-07T07:03:14.347Z,100546.41
2022-08-07T07:06:05.156Z,100548.91
2022-08-07T07:08:34.097Z,100550.94
2022-08-07T07:11:13.303Z,100541.91
2022-08-07T07:13:58.600Z,100546.31
2022-08-07T07:16:31.330Z,100546.03
2022-08-07T07:19:34.042Z,100543.97
2022-08-07T07:22:04.622Z,100535.59
2022-08-07T07:24:42.993Z,100536.72
2022-08-07T07:27:17.031Z,100541.34
2022-08-07T07:30:08.738Z,100536.34
2022-08-07T07:32:40.789Z,100531.09
2022-08-07T07:35:11.218Z,100531.47
2022-08-07T07:37:44.377Z,100529.34
2022-08-07T07:40:16.217Z,100526.63
2022-08-07T07:42:47.209Z,100525.63
2022-08-07T07:45:19.578Z,100528.88
2022-08-07T07:47:53.631Z,100528.28
2022-08-07T07:50:36.533Z,100530.56
2022-08-07T07:53:20.578Z,100524.00
2022-08-07T07:56:00.428Z,100513.19
2022-08-07T07:58:40.229Z,100526.78
2022-08-07T08:02:02.085Z,100515.66
2022-08-07T08:04:10.199Z,100517.31
2022-08-07T08:06:40.661Z,100519.47
2022-08-07T08:09:22.993Z,100514.06
2022-08-07T08:12:01.833Z,100508.06
2022-08-07T08:14:36.650Z,100501.69
2022-08-07T08:17:32.382Z,100504.66
2022-08-07T08:20:18.573Z,100504.78
2022-08-07T08:23:10.662Z,100510.25
2022-08-07T08:25:58.233Z,100514.03
2022-08-07T08:28:38.552Z,100500.44
2022-08-07T08:31:14.832Z,100492.59
2022-08-07T08:33:49.130Z,100497.25
2022-08-07T08:36:25.461Z,100494.75
2022-08-07T08:38:54.527Z,100495.00
2022-08-07T08:41:56.894Z,100500.34
2022-08-07T08:44:29.158Z,100493.56
2022-08-07T08:47:10.035Z,100492.50
2022-08-07T08:50:05.168Z,100493.50
2022-08-07T08:52:40.789Z,100489.19
2022-08-07T08:55:54.414Z,100492.94
2022-08-07T08:58:28.637Z,100486.28
2022-08-07T09:01:15.216Z,100480.47
2022-08-07T09:03:53.054Z,100483.66
2022-08-07T09:06:27.327Z,100484.25
2022-08-07T09:09:40.779Z,100491.16
2022-08-07T09:12:53.133Z,100487.59
2022-08-07T09:16:23.338Z,100482.28
2022-08-07T09:18:53.179Z,100485.78
2022-08-07T09:21:33.838Z,100480.69
2022-08-07T09:30:02.304Z,100473.78
2022-08-07T09:31:39.975Z,100473.41
2022-08-07T09:34:26.178Z,100472.63
2022-08-07T09:36:59.871Z,100469.34
2022-08-07T09:40:04.878Z,100460.78
2022-08-07T09:43:10.962Z,100457.31
2022-08-07T09:47:51.179Z,100467.09
2022-08-07T09:50:00.665Z,100472.09
2022-08-07T09:56:37.262Z,100448.03
2022-08-07T09:59:17.644Z,100450.09
2022-08-07T10:02:19.123Z,100492.13
2022-08-07T10:05:59.461Z,100440.50
2022-08-07T10:08:56.198Z,100435.47
2022-08-07T10:12:02.505Z,100428.66
2022-08-07T10:14:31.337Z,100433.00
2022-08-07T10:17:24.052Z,100413.63
2022-08-07T10:20:13.004Z,100427.63
2022-08-07T10:23:07.536Z,100428.66
2022-08-07T10:26:13.739Z,100404.06
2022-08-07T10:29:06.316Z,100419.50
2022-08-07T10:31:46.058Z,100400.34
2022-08-07T10:34:40.193Z,100403.66
2022-08-07T10:37:12.323Z,100406.59
2022-08-07T10:39:41.959Z,100391.38
2022-08-07T10:42:47.409Z,100375.97
2022-08-07T10:45:45.366Z,100395.75
2022-08-07T10:48:48.665Z,100382.66
2022-08-07T10:51:57.480Z,100390.56
2022-08-07T10:54:15.505Z,100384.13
2022-08-07T10:57:04.477Z,100374.94
2022-08-07T10:59:48.378Z,100381.00
2022-08-07T11:02:34.167Z,100370.59
2022-08-07T11:05:24.089Z,100360.97
2022-08-07T11:08:30.467Z,100364.75
2022-08-07T11:11:09.559Z,100351.41
2022-08-07T11:14:44.914Z,100358.69
2022-08-07T11:16:41.123Z,100342.84
2022-08-07T11:19:21.803Z,100341.41
2022-08-07T11:22:03.038Z,100340.56
2022-08-07T11:24:53.599Z,100346.84
2022-08-07T11:28:03.246Z,100334.31
2022-08-07T11:30:41.662Z,100333.72
2022-08-07T11:33:19.408Z,100335.56
2022-08-07T11:36:25.484Z,100329.09
2022-08-07T11:40:00.049Z,100327.25
2022-08-07T11:42:44.937Z,100323.47
2022-08-07T11:45:23.634Z,100325.34
2022-08-07T11:47:59.582Z,100304.69
2022-08-07T11:51:00.157Z,100323.44
2022-08-07T11:53:37.429Z,100333.03
2022-08-07T11:56:26.348Z,100315.31
2022-08-07T11:59:05.493Z,100305.72
2022-08-07T12:02:30.628Z,100305.09
2022-08-07T12:05:28.587Z,100311.53
2022-08-07T12:08:25.976Z,100321.75
2022-08-07T12:11:20.998Z,100300.47
2022-08-07T12:13:52.075Z,100300.25
2022-08-07T12:16:30.270Z,100306.69
2022-08-07T12:19:35.655Z,100294.19
2022-08-07T12:22:58.569Z,100298.53
2022-08-07T12:26:03.423Z,100303.28
2022-08-07T12:28:59.303Z,100289.53
2022-08-07T12:36:05.630Z,100277.03
2022-08-07T12:38:42.750Z,100274.25
2022-08-07T12:41:14.656Z,100278.22
2022-08-07T12:44:03.769Z,100270.09
2022-08-07T12:46:48.739Z,100274.88
2022-08-07T12:50:04.672Z,100261.06
2022-08-07T12:52:59.447Z,100270.03
2022-08-07T12:56:10.043Z,100274.19
2022-08-07T12:58:40.015Z,100275.63
2022-08-07T13:01:32.616Z,100274.56
2022-08-07T13:04:34.018Z,100272.09
2022-08-07T13:08:14.465Z,100271.63
2022-08-07T13:10:51.427Z,100258.25
2022-08-07T13:13:58.281Z,100258.44
2022-08-07T13:16:25.155Z,100245.91
2022-08-07T13:19:21.902Z,100253.25
2022-08-07T13:22:26.881Z,100248.44
2022-08-07T13:24:59.157Z,100238.13
2022-08-07T13:28:13.701Z,100231.22
2022-08-07T13:30:39.846Z,100236.38
2022-08-07T13:34:29.735Z,100237.22
2022-08-07T13:36:21.167Z,100232.22
2022-08-07T13:39:01.250Z,100226.34
2022-08-07T13:41:41.651Z,100222.19
2022-08-07T13:44:13.123Z,100223.19
2022-08-07T13:46:49.538Z,100214.97
2022-08-07T13:50:33.460Z,100213.47
2022-08-07T13:52:30.669Z,100235.16
2022-08-07T13:59:27.235Z,100212.38
2022-08-07T14:02:08.433Z,100222.84
2022-08-07T14:04:49.592Z,100207.72
2022-08-07T14:12:11.318Z,100193.09
2022-08-07T14:14:43.529Z,100191.66
2022-08-07T14:17:32.366Z,100201.41
2022-08-07T14:20:40.914Z,100196.66
2022-08-07T14:23:18.017Z,100185.31
2022-08-07T14:26:30.376Z,100180.50
2022-08-07T14:29:06.021Z,100189.66
2022-08-07T14:31:56.091Z,100174.16
2022-08-07T14:50:06.042Z,100167.91
2022-08-07T15:00:47.807Z,100177.59
2022-08-07T15:03:52.986Z,100182.25
2022-08-07T15:06:25.144Z,100164.81
2022-08-07T15:08:54.922Z,100170.88
2022-08-07T15:11:48.851Z,100163.94
2022-08-07T15:14:21.359Z,100161.88
2022-08-07T15:16:54.960Z,100162.50
2022-08-07T15:20:31.381Z,100149.03
2022-08-07T15:25:04.082Z,100157.72
2022-08-07T15:26:28.756Z,100154.84
2022-08-07T15:30:03.602Z,100149.56
2022-08-07T15:32:01.696Z,100157.06
2022-08-07T15:34:37.849Z,100151.50
2022-08-07T15:37:27.774Z,100143.97
2022-08-07T15:39:58.343Z,100151.75
2022-08-07T15:42:42.420Z,100158.69
2022-08-07T15:45:22.477Z,100150.22
2022-08-07T15:49:03.484Z,100150.53
2022-08-07T15:54:15.606Z,100135.59
2022-08-07T15:56:42.650Z,100125.53
2022-08-07T15:59:16.264Z,100123.63
2022-08-07T16:02:01.968Z,100136.25
2022-08-07T16:04:31.593Z,100131.44
2022-08-07T16:08:32.814Z,100130.44
2022-08-07T16:10:14.851Z,100139.66
2022-08-07T16:13:04.700Z,100133.75
2022-08-07T16:15:57.676Z,100130.28
2022-08-07T16:18:50.808Z,100120.13
2022-08-07T16:22:01.794Z,100122.75
2022-08-07T16:24:37.137Z,100110.38
2022-08-07T16:27:24.547Z,100119.34
2022-08-07T16:30:31.226Z,100106.59
2022-08-07T16:34:02.282Z,100117.81
2022-08-07T16:36:20.010Z,100121.09
2022-08-07T16:39:14.825Z,100110.22
2022-08-07T16:42:12.588Z,100111.25
2022-08-07T16:46:20.959Z,100116.16
2022-08-07T16:47:56.907Z,100113.00
2022-08-07T16:50:38.878Z,100113.59
2022-08-07T16:54:02.639Z,100116.69
2022-08-07T16:56:26.200Z,100110.53
2022-08-07T16:59:58.063Z,100121.09
2022-08-07T17:27:00.471Z,100138.16
2022-08-07T17:30:13.938Z,100124.66
2022-08-07T17:34:08.678Z,100127.44
2022-08-07T17:36:13.677Z,100127.13
2022-08-07T17:38:57.080Z,100121.25
2022-08-07T17:42:02.257Z,100140.72
2022-08-07T17:44:43.909Z,100139.22
2022-08-07T17:47:54.034Z,100137.00
2022-08-07T17:52:00.861Z,100139.97
2022-08-07T17:58:48.242Z,100139.28
2022-08-07T18:01:58.109Z,100149.56
2022-08-07T18:04:36.794Z,100152.66
2022-08-07T18:07:20.606Z,100147.00
2022-08-07T18:10:07.516Z,100152.06
2022-08-07T18:13:16.457Z,100155.06
2022-08-07T18:16:08.144Z,100151.97
2022-08-07T18:21:02.565Z,100152.97
2022-08-07T18:22:00.545Z,100160.44
2022-08-07T18:24:36.047Z,100159.16
2022-08-07T18:27:20.940Z,100155.91
2022-08-07T18:30:06.866Z,100163.16
2022-08-07T18:33:15.175Z,100157.41
2022-08-07T18:36:06.040Z,100166.84
2022-08-07T18:40:07.321Z,100160.03
2022-08-07T18:42:12.957Z,100161.84
2022-08-07T18:45:39.816Z,100159.78
2022-08-07T18:50:05.244Z,100167.13
2022-08-07T18:52:34.656Z,100165.06
2022-08-07T18:55:42.501Z,100172.25
2022-08-07T18:58:15.046Z,100177.47
2022-08-07T19:00:54.423Z,100181.97
2022-08-07T19:03:37.885Z,100194.34
2022-08-07T19:06:49.253Z,100190.13
2022-08-07T19:09:55.857Z,100194.13
2022-08-07T19:12:18.915Z,100198.88
2022-08-07T19:15:01.544Z,100207.94
2022-08-07T19:18:11.518Z,100212.81
2022-08-07T19:21:44.298Z,100216.63
2022-08-07T19:24:30.476Z,100218.94
2022-08-07T19:28:58.071Z,100224.97
2022-08-07T19:30:56.025Z,100231.44
2022-08-07T19:32:46.186Z,100228.56
2022-08-07T19:35:22.302Z,100233.41
2022-08-07T19:37:57.751Z,100233.41
2022-08-07T19:40:33.401Z,100238.22
2022-08-07T19:43:12.816Z,100231.59
2022-08-07T19:46:06.016Z,100231.13
2022-08-07T19:48:42.920Z,100233.03
2022-08-07T19:51:20.237Z,100231.34
2022-08-07T19:54:33.036Z,100241.22
2022-08-07T19:57:51.991Z,100244.16
2022-08-07T19:59:40.575Z,100251.03
2022-08-07T20:02:19.062Z,100254.63
2022-08-07T20:04:49.018Z,100251.28
2022-08-07T20:07:23.683Z,100258.19
2022-08-07T20:10:36.070Z,100254.41
2022-08-07T20:12:43.083Z,100252.34
2022-08-07T20:15:19.059Z,100251.50
2022-08-07T20:18:01.383Z,100258.38
2022-08-07T20:20:32.001Z,100261.09
2022-08-07T20:23:23.107Z,100256.50
2022-08-07T20:25:53.225Z,100251.13
2022-08-07T20:28:20.782Z,100252.56
2022-08-07T20:30:58.268Z,100257.56
2022-08-07T20:33:37.803Z,100260.91
2022-08-07T20:36:07.080Z,100263.00
2022-08-07T20:38:34.690Z,100260.91
2022-08-07T20:41:03.896Z,100265.50
2022-08-07T20:43:32.963Z,100263.84
2022-08-07T20:46:27.102Z,100264.88
2022-08-07T20:49:55.185Z,100260.72
2022-08-07T20:51:40.401Z,100258.63
2022-08-07T20:54:30.095Z,100262.59
2022-08-07T20:57:04.777Z,100258.00
2022-08-07T21:00:07.319Z,100254.41
2022-08-07T21:02:40.028Z,100256.75
2022-08-07T21:05:16.240Z,100246.75
2022-08-07T21:07:49.509Z,100246.13
2022-08-07T21:10:29.785Z,100244.66
2022-08-07T21:13:00.799Z,100244.03
2022-08-07T21:15:58.592Z,100242.94
2022-08-07T21:18:28.061Z,100238.50
2022-08-07T21:20:56.627Z,100238.16
2022-08-07T21:23:49.455Z,100238.75
2022-08-07T21:26:43.796Z,100239.81
2022-08-07T21:29:30.803Z,100237.91
2022-08-07T21:32:47.734Z,100239.56
2022-08-07T21:35:18.502Z,100241.00
2022-08-07T21:38:44.156Z,100241.84
2022-08-07T21:41:38.238Z,100238.91
2022-08-07T21:44:32.397Z,100238.91
2022-08-07T21:47:17.415Z,100243.31
2022-08-07T21:50:03.147Z,100239.97
2022-08-07T21:52:54.526Z,100242.19
2022-08-07T21:55:29.755Z,100241.41
2022-08-07T21:58:08.317Z,100243.91
2022-08-07T22:00:40.875Z,100242.88
2022-08-07T22:03:16.566Z,100241.59
2022-08-07T22:05:52.110Z,100249.72
2022-08-07T22:08:22.073Z,100260.31
2022-08-07T22:10:54.874Z,100257.59
2022-08-07T22:13:50.389Z,100264.03
2022-08-07T22:16:44.595Z,100264.03
2022-08-07T22:19:17.891Z,100269.13
2022-08-07T22:22:05.368Z,100273.56
2022-08-07T22:25:11.153Z,100274.34
2022-08-07T22:28:07.390Z,100272.72
2022-08-07T22:30:52.940Z,100267.00
2022-08-07T22:33:53.600Z,100276.19
2022-08-07T22:36:35.894Z,100285.00
2022-08-07T22:39:23.440Z,100275.53
2022-08-07T22:42:03.599Z,100283.59
2022-08-07T22:44:58.373Z,100288.41
2022-08-07T22:47:56.978Z,100286.59
2022-08-07T22:50:52.019Z,100286.09
2022-08-07T22:54:05.519Z,100296.66
2022-08-07T22:56:34.411Z,100291.22
2022-08-07T22:59:01.742Z,100294.34
2022-08-07T23:01:49.549Z,100284.72
2022-08-07T23:04:56.807Z,100289.03
2022-08-07T23:07:58.150Z,100291.81
2022-08-07T23:10:41.262Z,100286.91
2022-08-07T23:13:29.305Z,100285.50
2022-08-07T23:16:46.841Z,100287.41
2022-08-07T23:19:51.147Z,100297.78
2022-08-07T23:22:45.141Z,100292.41
2022-08-07T23:25:30.745Z,100289.81
2022-08-07T23:28:22.947Z,100288.88
2022-08-07T23:31:42.654Z,100287.84
2022-08-07T23:34:41.136Z,100294.88
2022-08-07T23:37:22.965Z,100293.38
2022-08-07T23:40:23.952Z,100292.84
2022-08-07T23:43:17.076Z,100292.97
2022-08-07T23:46:03.481Z,100297.75
2022-08-07T23:48:56.249Z,100287.06
2022-08-07T23:52:57.891Z,100289.34
2022-08-07T23:54:43.816Z,100292.44
2022-08-07T23:57:20.429Z,100296.06
